sensor_id;sensor_type;location;lat;lon;timestamp;P1;durP1;ratioP1;P2;durP2;ratioP2
66093;SDS011;52876;49.394;10.892;2023-02-12T00:00:39;38.97;;;26.00;;
66093;SDS011;52876;49.394;10.892;2023-02-12T00:03:06;41.80;;;27.57;;
66093;SDS011;52876;49.394;10.892;2023-02-12T00:05:36;41.07;;;26.90;;
66093;SDS011;52876;49.394;10.892;2023-02-12T00:08:02;44.27;;;27.80;;
66093;SDS011;52876;49.394;10.892;2023-02-12T00:10:28;45.20;;;28.43;;
66093;SDS011;52876;49.394;10.892;2023-02-12T00:12:55;42.50;;;25.80;;
66093;SDS011;52876;49.394;10.892;2023-02-12T00:15:23;45.13;;;27.23;;
66093;SDS011;52876;49.394;10.892;2023-02-12T00:17:49;44.43;;;27.70;;
66093;SDS011;52876;49.394;10.892;2023-02-12T00:20:17;39.30;;;25.63;;
66093;SDS011;52876;49.394;10.892;2023-02-12T00:22:45;39.80;;;25.80;;
66093;SDS011;52876;49.394;10.892;2023-02-12T00:25:11;43.20;;;27.63;;
66093;SDS011;52876;49.394;10.892;2023-02-12T00:27:39;46.17;;;26.33;;
66093;SDS011;52876;49.394;10.892;2023-02-12T00:30:05;42.93;;;27.13;;
66093;SDS011;52876;49.394;10.892;2023-02-12T00:32:33;41.83;;;26.80;;
66093;SDS011;52876;49.394;10.892;2023-02-12T00:35:19;46.43;;;28.73;;
66093;SDS011;52876;49.394;10.892;2023-02-12T00:37:48;43.87;;;26.30;;
66093;SDS011;52876;49.394;10.892;2023-02-12T00:40:14;45.50;;;28.07;;
66093;SDS011;52876;49.394;10.892;2023-02-12T00:42:42;44.60;;;29.10;;
66093;SDS011;52876;49.394;10.892;2023-02-12T00:45:08;47.63;;;28.00;;
66093;SDS011;52876;49.394;10.892;2023-02-12T00:47:35;46.10;;;29.17;;
66093;SDS011;52876;49.394;10.892;2023-02-12T00:50:02;39.60;;;25.37;;
66093;SDS011;52876;49.394;10.892;2023-02-12T00:52:30;47.70;;;28.33;;
66093;SDS011;52876;49.394;10.892;2023-02-12T00:54:58;43.70;;;26.30;;
66093;SDS011;52876;49.394;10.892;2023-02-12T00:57:25;46.73;;;27.37;;
66093;SDS011;52876;49.394;10.892;2023-02-12T00:59:51;50.00;;;29.90;;
66093;SDS011;52876;49.394;10.892;2023-02-12T01:02:17;44.40;;;28.17;;
66093;SDS011;52876;49.394;10.892;2023-02-12T01:04:44;46.47;;;29.03;;
66093;SDS011;52876;49.394;10.892;2023-02-12T01:07:30;46.80;;;27.70;;
66093;SDS011;52876;49.394;10.892;2023-02-12T01:10:17;52.30;;;30.30;;
66093;SDS011;52876;49.394;10.892;2023-02-12T01:12:52;46.00;;;28.37;;
66093;SDS011;52876;49.394;10.892;2023-02-12T01:15:22;46.00;;;28.27;;
66093;SDS011;52876;49.394;10.892;2023-02-12T01:17:49;47.00;;;26.80;;
66093;SDS011;52876;49.394;10.892;2023-02-12T01:20:16;50.17;;;29.40;;
66093;SDS011;52876;49.394;10.892;2023-02-12T01:22:45;44.20;;;26.50;;
66093;SDS011;52876;49.394;10.892;2023-02-12T01:25:11;49.37;;;28.90;;
66093;SDS011;52876;49.394;10.892;2023-02-12T01:27:39;47.77;;;28.83;;
66093;SDS011;52876;49.394;10.892;2023-02-12T01:30:07;52.80;;;31.10;;
66093;SDS011;52876;49.394;10.892;2023-02-12T01:32:36;49.13;;;30.43;;
66093;SDS011;52876;49.394;10.892;2023-02-12T01:35:02;52.30;;;28.90;;
66093;SDS011;52876;49.394;10.892;2023-02-12T01:37:29;49.73;;;28.87;;
66093;SDS011;52876;49.394;10.892;2023-02-12T01:39:59;47.57;;;28.70;;
66093;SDS011;52876;49.394;10.892;2023-02-12T01:42:26;48.17;;;28.07;;
66093;SDS011;52876;49.394;10.892;2023-02-12T01:48:01;49.07;;;28.17;;
66093;SDS011;52876;49.394;10.892;2023-02-12T01:50:29;49.30;;;30.37;;
66093;SDS011;52876;49.394;10.892;2023-02-12T01:52:55;49.93;;;30.13;;
66093;SDS011;52876;49.394;10.892;2023-02-12T01:55:22;53.00;;;28.97;;
66093;SDS011;52876;49.394;10.892;2023-02-12T01:57:48;52.07;;;30.03;;
66093;SDS011;52876;49.394;10.892;2023-02-12T02:00:17;51.00;;;28.23;;
66093;SDS011;52876;49.394;10.892;2023-02-12T02:02:50;53.93;;;30.50;;
66093;SDS011;52876;49.394;10.892;2023-02-12T02:05:20;52.17;;;29.47;;
66093;SDS011;52876;49.394;10.892;2023-02-12T02:07:51;53.67;;;30.73;;
66093;SDS011;52876;49.394;10.892;2023-02-12T02:10:18;49.50;;;29.10;;
66093;SDS011;52876;49.394;10.892;2023-02-12T02:12:46;53.33;;;31.17;;
66093;SDS011;52876;49.394;10.892;2023-02-12T02:15:12;50.70;;;31.13;;
66093;SDS011;52876;49.394;10.892;2023-02-12T02:17:42;55.93;;;32.30;;
66093;SDS011;52876;49.394;10.892;2023-02-12T02:32:23;60.47;;;32.10;;
66093;SDS011;52876;49.394;10.892;2023-02-12T02:34:54;51.20;;;29.87;;
66093;SDS011;52876;49.394;10.892;2023-02-12T02:37:27;58.73;;;33.43;;
66093;SDS011;52876;49.394;10.892;2023-02-12T02:39:57;48.03;;;30.10;;
66093;SDS011;52876;49.394;10.892;2023-02-12T02:42:32;56.87;;;31.80;;
66093;SDS011;52876;49.394;10.892;2023-02-12T02:45:03;49.73;;;28.30;;
66093;SDS011;52876;49.394;10.892;2023-02-12T02:47:38;57.43;;;32.13;;
66093;SDS011;52876;49.394;10.892;2023-02-12T02:50:09;50.30;;;29.50;;
66093;SDS011;52876;49.394;10.892;2023-02-12T02:52:41;47.80;;;27.87;;
66093;SDS011;52876;49.394;10.892;2023-02-12T02:55:12;59.70;;;33.93;;
66093;SDS011;52876;49.394;10.892;2023-02-12T02:57:44;53.20;;;30.77;;
66093;SDS011;52876;49.394;10.892;2023-02-12T03:00:14;53.53;;;31.23;;
66093;SDS011;52876;49.394;10.892;2023-02-12T03:02:48;63.30;;;33.30;;
66093;SDS011;52876;49.394;10.892;2023-02-12T03:05:17;65.37;;;34.50;;
66093;SDS011;52876;49.394;10.892;2023-02-12T03:07:48;50.00;;;31.37;;
66093;SDS011;52876;49.394;10.892;2023-02-12T03:10:17;52.53;;;28.90;;
66093;SDS011;52876;49.394;10.892;2023-02-12T03:12:50;53.07;;;30.77;;
66093;SDS011;52876;49.394;10.892;2023-02-12T03:15:18;62.10;;;33.60;;
66093;SDS011;52876;49.394;10.892;2023-02-12T03:17:50;58.40;;;33.60;;
66093;SDS011;52876;49.394;10.892;2023-02-12T03:20:18;54.83;;;32.50;;
66093;SDS011;52876;49.394;10.892;2023-02-12T03:22:50;51.80;;;31.17;;
66093;SDS011;52876;49.394;10.892;2023-02-12T03:25:20;52.40;;;30.00;;
66093;SDS011;52876;49.394;10.892;2023-02-12T03:27:51;54.70;;;32.60;;
66093;SDS011;52876;49.394;10.892;2023-02-12T03:30:25;53.20;;;30.60;;
66093;SDS011;52876;49.394;10.892;2023-02-12T03:33:00;55.43;;;29.20;;
66093;SDS011;52876;49.394;10.892;2023-02-12T03:35:34;57.80;;;31.77;;
66093;SDS011;52876;49.394;10.892;2023-02-12T03:38:07;51.20;;;28.70;;
66093;SDS011;52876;49.394;10.892;2023-02-12T03:40:42;48.23;;;27.97;;
66093;SDS011;52876;49.394;10.892;2023-02-12T03:43:17;47.43;;;29.47;;
66093;SDS011;52876;49.394;10.892;2023-02-12T03:45:49;53.80;;;31.83;;
66093;SDS011;52876;49.394;10.892;2023-02-12T03:48:21;62.70;;;33.53;;
66093;SDS011;52876;49.394;10.892;2023-02-12T03:50:51;59.63;;;33.20;;
66093;SDS011;52876;49.394;10.892;2023-02-12T03:53:20;48.73;;;29.60;;
66093;SDS011;52876;49.394;10.892;2023-02-12T03:55:50;60.07;;;33.13;;
66093;SDS011;52876;49.394;10.892;2023-02-12T03:58:20;51.40;;;31.30;;
66093;SDS011;52876;49.394;10.892;2023-02-12T04:00:51;51.93;;;28.93;;
66093;SDS011;52876;49.394;10.892;2023-02-12T04:03:17;52.87;;;29.70;;
66093;SDS011;52876;49.394;10.892;2023-02-12T04:05:44;48.90;;;29.23;;
66093;SDS011;52876;49.394;10.892;2023-02-12T04:08:10;49.17;;;28.30;;
66093;SDS011;52876;49.394;10.892;2023-02-12T04:10:38;55.77;;;31.63;;
66093;SDS011;52876;49.394;10.892;2023-02-12T04:13:15;59.70;;;33.30;;
66093;SDS011;52876;49.394;10.892;2023-02-12T04:15:55;58.20;;;32.80;;
66093;SDS011;52876;49.394;10.892;2023-02-12T04:18:30;62.53;;;33.33;;
66093;SDS011;52876;49.394;10.892;2023-02-12T04:21:05;53.40;;;31.03;;
66093;SDS011;52876;49.394;10.892;2023-02-12T04:23:39;61.57;;;32.90;;
66093;SDS011;52876;49.394;10.892;2023-02-12T04:26:14;58.90;;;31.83;;
66093;SDS011;52876;49.394;10.892;2023-02-12T04:28:47;56.50;;;32.03;;
66093;SDS011;52876;49.394;10.892;2023-02-12T04:31:25;55.17;;;30.77;;
66093;SDS011;52876;49.394;10.892;2023-02-12T04:33:56;59.33;;;32.20;;
66093;SDS011;52876;49.394;10.892;2023-02-12T04:36:30;55.70;;;31.97;;
66093;SDS011;52876;49.394;10.892;2023-02-12T04:39:00;55.13;;;31.60;;
66093;SDS011;52876;49.394;10.892;2023-02-12T04:41:30;56.03;;;32.33;;
66093;SDS011;52876;49.394;10.892;2023-02-12T04:43:57;58.17;;;32.33;;
66093;SDS011;52876;49.394;10.892;2023-02-12T04:46:23;49.70;;;29.80;;
66093;SDS011;52876;49.394;10.892;2023-02-12T04:48:50;50.90;;;30.00;;
66093;SDS011;52876;49.394;10.892;2023-02-12T04:51:19;66.50;;;34.93;;
66093;SDS011;52876;49.394;10.892;2023-02-12T04:53:47;53.20;;;31.20;;
66093;SDS011;52876;49.394;10.892;2023-02-12T04:56:14;56.70;;;29.87;;
66093;SDS011;52876;49.394;10.892;2023-02-12T04:58:41;64.20;;;32.37;;
66093;SDS011;52876;49.394;10.892;2023-02-12T05:01:06;67.53;;;34.27;;
66093;SDS011;52876;49.394;10.892;2023-02-12T05:03:33;57.33;;;33.20;;
66093;SDS011;52876;49.394;10.892;2023-02-12T05:06:01;65.93;;;34.90;;
66093;SDS011;52876;49.394;10.892;2023-02-12T05:08:27;53.03;;;30.17;;
66093;SDS011;52876;49.394;10.892;2023-02-12T05:10:56;56.00;;;31.57;;
66093;SDS011;52876;49.394;10.892;2023-02-12T05:13:27;57.33;;;31.43;;
66093;SDS011;52876;49.394;10.892;2023-02-12T05:15:53;68.80;;;34.57;;
66093;SDS011;52876;49.394;10.892;2023-02-12T05:18:19;61.83;;;33.40;;
66093;SDS011;52876;49.394;10.892;2023-02-12T05:20:53;60.20;;;31.97;;
66093;SDS011;52876;49.394;10.892;2023-02-12T05:23:19;75.00;;;36.67;;
66093;SDS011;52876;49.394;10.892;2023-02-12T05:25:45;63.43;;;36.27;;
66093;SDS011;52876;49.394;10.892;2023-02-12T05:28:15;57.10;;;31.90;;
66093;SDS011;52876;49.394;10.892;2023-02-12T05:30:43;64.33;;;34.27;;
66093;SDS011;52876;49.394;10.892;2023-02-12T05:33:19;64.03;;;34.50;;
66093;SDS011;52876;49.394;10.892;2023-02-12T05:35:46;68.57;;;35.37;;
66093;SDS011;52876;49.394;10.892;2023-02-12T05:38:12;73.30;;;35.93;;
66093;SDS011;52876;49.394;10.892;2023-02-12T05:40:38;67.87;;;36.33;;
66093;SDS011;52876;49.394;10.892;2023-02-12T05:43:04;77.43;;;38.73;;
66093;SDS011;52876;49.394;10.892;2023-02-12T05:45:32;73.47;;;38.37;;
66093;SDS011;52876;49.394;10.892;2023-02-12T05:48:00;57.40;;;32.70;;
66093;SDS011;52876;49.394;10.892;2023-02-12T05:50:28;59.77;;;33.30;;
66093;SDS011;52876;49.394;10.892;2023-02-12T05:52:53;57.07;;;32.40;;
66093;SDS011;52876;49.394;10.892;2023-02-12T05:55:21;73.67;;;37.40;;
66093;SDS011;52876;49.394;10.892;2023-02-12T05:57:49;67.53;;;36.10;;
66093;SDS011;52876;49.394;10.892;2023-02-12T06:00:15;80.00;;;39.63;;
66093;SDS011;52876;49.394;10.892;2023-02-12T06:02:44;81.37;;;38.73;;
66093;SDS011;52876;49.394;10.892;2023-02-12T06:05:10;72.40;;;38.80;;
66093;SDS011;52876;49.394;10.892;2023-02-12T06:07:38;83.17;;;39.60;;
66093;SDS011;52876;49.394;10.892;2023-02-12T06:10:07;77.93;;;38.77;;
66093;SDS011;52876;49.394;10.892;2023-02-12T06:12:35;69.30;;;37.80;;
66093;SDS011;52876;49.394;10.892;2023-02-12T06:15:01;58.97;;;31.63;;
66093;SDS011;52876;49.394;10.892;2023-02-12T06:17:28;57.73;;;35.90;;
66093;SDS011;52876;49.394;10.892;2023-02-12T06:19:56;70.10;;;35.40;;
66093;SDS011;52876;49.394;10.892;2023-02-12T06:22:22;87.37;;;40.70;;
66093;SDS011;52876;49.394;10.892;2023-02-12T06:24:48;89.17;;;41.53;;
66093;SDS011;52876;49.394;10.892;2023-02-12T06:27:14;58.00;;;32.10;;
66093;SDS011;52876;49.394;10.892;2023-02-12T06:29:40;80.80;;;39.57;;
66093;SDS011;52876;49.394;10.892;2023-02-12T06:32:06;62.30;;;33.37;;
66093;SDS011;52876;49.394;10.892;2023-02-12T06:34:32;63.80;;;31.90;;
66093;SDS011;52876;49.394;10.892;2023-02-12T06:37:00;68.83;;;36.50;;
66093;SDS011;52876;49.394;10.892;2023-02-12T06:39:26;77.70;;;36.27;;
66093;SDS011;52876;49.394;10.892;2023-02-12T06:41:52;73.97;;;37.20;;
66093;SDS011;52876;49.394;10.892;2023-02-12T06:44:18;75.03;;;36.47;;
66093;SDS011;52876;49.394;10.892;2023-02-12T06:46:43;72.00;;;36.80;;
66093;SDS011;52876;49.394;10.892;2023-02-12T06:49:10;81.63;;;38.97;;
66093;SDS011;52876;49.394;10.892;2023-02-12T06:51:36;86.87;;;42.93;;
66093;SDS011;52876;49.394;10.892;2023-02-12T06:54:04;78.40;;;38.17;;
66093;SDS011;52876;49.394;10.892;2023-02-12T06:56:31;79.57;;;36.53;;
66093;SDS011;52876;49.394;10.892;2023-02-12T06:58:58;73.77;;;38.07;;
66093;SDS011;52876;49.394;10.892;2023-02-12T07:01:26;74.23;;;36.27;;
66093;SDS011;52876;49.394;10.892;2023-02-12T07:03:53;86.30;;;41.40;;
66093;SDS011;52876;49.394;10.892;2023-02-12T07:06:21;66.53;;;36.60;;
66093;SDS011;52876;49.394;10.892;2023-02-12T07:08:48;82.33;;;48.67;;
66093;SDS011;52876;49.394;10.892;2023-02-12T07:11:15;89.60;;;46.53;;
66093;SDS011;52876;49.394;10.892;2023-02-12T07:13:42;73.30;;;46.50;;
66093;SDS011;52876;49.394;10.892;2023-02-12T07:16:11;83.87;;;41.50;;
66093;SDS011;52876;49.394;10.892;2023-02-12T07:18:39;86.87;;;44.50;;
66093;SDS011;52876;49.394;10.892;2023-02-12T07:21:05;81.87;;;40.77;;
66093;SDS011;52876;49.394;10.892;2023-02-12T07:23:32;80.50;;;38.23;;
66093;SDS011;52876;49.394;10.892;2023-02-12T07:26:01;72.50;;;36.90;;
66093;SDS011;52876;49.394;10.892;2023-02-12T07:28:29;64.70;;;34.37;;
66093;SDS011;52876;49.394;10.892;2023-02-12T07:30:56;59.20;;;33.13;;
66093;SDS011;52876;49.394;10.892;2023-02-12T07:33:23;62.40;;;33.20;;
66093;SDS011;52876;49.394;10.892;2023-02-12T07:35:49;67.33;;;36.70;;
66093;SDS011;52876;49.394;10.892;2023-02-12T07:38:15;80.00;;;40.10;;
66093;SDS011;52876;49.394;10.892;2023-02-12T07:40:41;78.30;;;40.37;;
66093;SDS011;52876;49.394;10.892;2023-02-12T07:43:07;68.97;;;37.60;;
66093;SDS011;52876;49.394;10.892;2023-02-12T07:45:36;84.53;;;42.17;;
66093;SDS011;52876;49.394;10.892;2023-02-12T07:48:02;84.77;;;41.30;;
66093;SDS011;52876;49.394;10.892;2023-02-12T07:50:28;80.13;;;41.67;;
66093;SDS011;52876;49.394;10.892;2023-02-12T07:52:54;71.90;;;37.27;;
66093;SDS011;52876;49.394;10.892;2023-02-12T07:55:21;77.90;;;38.87;;
66093;SDS011;52876;49.394;10.892;2023-02-12T07:57:49;84.17;;;40.00;;
66093;SDS011;52876;49.394;10.892;2023-02-12T08:00:15;91.00;;;44.20;;
66093;SDS011;52876;49.394;10.892;2023-02-12T08:02:45;78.13;;;41.37;;
66093;SDS011;52876;49.394;10.892;2023-02-12T08:05:15;71.37;;;38.77;;
66093;SDS011;52876;49.394;10.892;2023-02-12T08:07:46;85.97;;;41.63;;
66093;SDS011;52876;49.394;10.892;2023-02-12T08:10:12;89.83;;;44.10;;
66093;SDS011;52876;49.394;10.892;2023-02-12T08:12:44;71.00;;;38.20;;
66093;SDS011;52876;49.394;10.892;2023-02-12T08:15:10;75.87;;;39.87;;
66093;SDS011;52876;49.394;10.892;2023-02-12T08:17:37;69.73;;;39.67;;
66093;SDS011;52876;49.394;10.892;2023-02-12T08:20:05;78.93;;;40.43;;
66093;SDS011;52876;49.394;10.892;2023-02-12T08:22:33;68.77;;;39.33;;
66093;SDS011;52876;49.394;10.892;2023-02-12T08:24:59;69.63;;;37.60;;
66093;SDS011;52876;49.394;10.892;2023-02-12T08:27:26;65.80;;;36.47;;
66093;SDS011;52876;49.394;10.892;2023-02-12T08:29:52;71.20;;;36.67;;
66093;SDS011;52876;49.394;10.892;2023-02-12T08:32:18;61.07;;;34.57;;
66093;SDS011;52876;49.394;10.892;2023-02-12T08:34:44;76.50;;;38.57;;
66093;SDS011;52876;49.394;10.892;2023-02-12T08:37:12;60.90;;;34.40;;
66093;SDS011;52876;49.394;10.892;2023-02-12T08:39:38;64.53;;;37.10;;
66093;SDS011;52876;49.394;10.892;2023-02-12T08:42:04;56.10;;;31.90;;
66093;SDS011;52876;49.394;10.892;2023-02-12T08:44:30;50.30;;;32.97;;
66093;SDS011;52876;49.394;10.892;2023-02-12T08:46:57;48.63;;;30.17;;
66093;SDS011;52876;49.394;10.892;2023-02-12T08:49:24;50.43;;;30.73;;
66093;SDS011;52876;49.394;10.892;2023-02-12T08:51:52;52.43;;;31.70;;
66093;SDS011;52876;49.394;10.892;2023-02-12T08:54:21;49.97;;;30.03;;
66093;SDS011;52876;49.394;10.892;2023-02-12T08:56:53;57.00;;;34.67;;
66093;SDS011;52876;49.394;10.892;2023-02-12T08:59:19;53.97;;;31.13;;
66093;SDS011;52876;49.394;10.892;2023-02-12T09:01:48;58.03;;;35.63;;
66093;SDS011;52876;49.394;10.892;2023-02-12T09:04:15;56.10;;;33.57;;
66093;SDS011;52876;49.394;10.892;2023-02-12T09:06:44;53.47;;;33.37;;
66093;SDS011;52876;49.394;10.892;2023-02-12T09:09:10;56.13;;;32.20;;
66093;SDS011;52876;49.394;10.892;2023-02-12T09:11:37;49.07;;;31.40;;
66093;SDS011;52876;49.394;10.892;2023-02-12T09:14:04;49.40;;;31.00;;
66093;SDS011;52876;49.394;10.892;2023-02-12T09:16:33;55.87;;;30.47;;
66093;SDS011;52876;49.394;10.892;2023-02-12T09:19:00;50.00;;;30.50;;
66093;SDS011;52876;49.394;10.892;2023-02-12T09:21:28;53.93;;;32.70;;
66093;SDS011;52876;49.394;10.892;2023-02-12T09:23:54;56.67;;;32.50;;
66093;SDS011;52876;49.394;10.892;2023-02-12T09:26:21;57.90;;;33.30;;
66093;SDS011;52876;49.394;10.892;2023-02-12T09:28:49;60.37;;;35.17;;
66093;SDS011;52876;49.394;10.892;2023-02-12T09:31:17;62.60;;;34.90;;
66093;SDS011;52876;49.394;10.892;2023-02-12T09:33:44;49.70;;;31.73;;
66093;SDS011;52876;49.394;10.892;2023-02-12T09:36:13;50.00;;;30.77;;
66093;SDS011;52876;49.394;10.892;2023-02-12T09:38:40;47.93;;;29.67;;
66093;SDS011;52876;49.394;10.892;2023-02-12T09:41:16;54.40;;;31.10;;
66093;SDS011;52876;49.394;10.892;2023-02-12T09:44:05;53.87;;;30.20;;
66093;SDS011;52876;49.394;10.892;2023-02-12T09:46:38;54.83;;;30.40;;
66093;SDS011;52876;49.394;10.892;2023-02-12T09:49:13;55.47;;;30.50;;
66093;SDS011;52876;49.394;10.892;2023-02-12T09:51:48;51.17;;;31.50;;
66093;SDS011;52876;49.394;10.892;2023-02-12T09:54:17;53.50;;;29.87;;
66093;SDS011;52876;49.394;10.892;2023-02-12T09:56:46;50.53;;;29.87;;
66093;SDS011;52876;49.394;10.892;2023-02-12T09:59:19;41.93;;;26.40;;
66093;SDS011;52876;49.394;10.892;2023-02-12T10:01:56;51.23;;;29.30;;
66093;SDS011;52876;49.394;10.892;2023-02-12T10:04:22;39.97;;;24.60;;
66093;SDS011;52876;49.394;10.892;2023-02-12T10:07:00;40.57;;;23.33;;
66093;SDS011;52876;49.394;10.892;2023-02-12T10:09:35;35.30;;;21.87;;
66093;SDS011;52876;49.394;10.892;2023-02-12T10:12:20;24.90;;;16.47;;
66093;SDS011;52876;49.394;10.892;2023-02-12T10:15:14;22.23;;;14.70;;
66093;SDS011;52876;49.394;10.892;2023-02-12T10:17:57;12.03;;;9.10;;
66093;SDS011;52876;49.394;10.892;2023-02-12T10:20:50;17.67;;;11.33;;
66093;SDS011;52876;49.394;10.892;2023-02-12T10:26:21;27.50;;;18.23;;
66093;SDS011;52876;49.394;10.892;2023-02-12T10:28:51;32.00;;;19.33;;
66093;SDS011;52876;49.394;10.892;2023-02-12T10:31:20;32.03;;;18.93;;
66093;SDS011;52876;49.394;10.892;2023-02-12T10:33:51;27.73;;;18.40;;
66093;SDS011;52876;49.394;10.892;2023-02-12T10:36:23;36.10;;;23.50;;
66093;SDS011;52876;49.394;10.892;2023-02-12T10:38:57;30.53;;;22.13;;
66093;SDS011;52876;49.394;10.892;2023-02-12T10:41:30;28.53;;;17.43;;
66093;SDS011;52876;49.394;10.892;2023-02-12T10:44:01;25.10;;;16.77;;
66093;SDS011;52876;49.394;10.892;2023-02-12T10:46:30;32.37;;;19.77;;
66093;SDS011;52876;49.394;10.892;2023-02-12T10:48:56;29.57;;;17.60;;
66093;SDS011;52876;49.394;10.892;2023-02-12T10:51:32;28.40;;;18.03;;
66093;SDS011;52876;49.394;10.892;2023-02-12T10:56:54;30.93;;;18.83;;
66093;SDS011;52876;49.394;10.892;2023-02-12T10:59:21;29.83;;;17.97;;
66093;SDS011;52876;49.394;10.892;2023-02-12T11:01:50;30.73;;;18.87;;
66093;SDS011;52876;49.394;10.892;2023-02-12T11:04:20;26.90;;;16.37;;
66093;SDS011;52876;49.394;10.892;2023-02-12T11:06:56;32.13;;;18.90;;
66093;SDS011;52876;49.394;10.892;2023-02-12T11:09:26;26.33;;;16.57;;
66093;SDS011;52876;49.394;10.892;2023-02-12T11:11:54;30.20;;;18.03;;
66093;SDS011;52876;49.394;10.892;2023-02-12T11:14:21;30.90;;;18.03;;
66093;SDS011;52876;49.394;10.892;2023-02-12T11:16:51;24.50;;;17.13;;
66093;SDS011;52876;49.394;10.892;2023-02-12T11:19:19;27.77;;;17.23;;
66093;SDS011;52876;49.394;10.892;2023-02-12T11:21:46;25.27;;;16.57;;
66093;SDS011;52876;49.394;10.892;2023-02-12T11:24:20;25.00;;;16.20;;
66093;SDS011;52876;49.394;10.892;2023-02-12T11:27:01;26.50;;;17.27;;
66093;SDS011;52876;49.394;10.892;2023-02-12T11:29:38;27.17;;;17.20;;
66093;SDS011;52876;49.394;10.892;2023-02-12T11:32:07;26.30;;;16.70;;
66093;SDS011;52876;49.394;10.892;2023-02-12T11:34:40;28.73;;;16.90;;
66093;SDS011;52876;49.394;10.892;2023-02-12T11:37:09;27.33;;;17.53;;
66093;SDS011;52876;49.394;10.892;2023-02-12T11:39:40;27.07;;;16.70;;
66093;SDS011;52876;49.394;10.892;2023-02-12T11:42:14;24.83;;;15.73;;
66093;SDS011;52876;49.394;10.892;2023-02-12T11:44:42;28.80;;;17.63;;
66093;SDS011;52876;49.394;10.892;2023-02-12T11:47:17;30.50;;;18.40;;
66093;SDS011;52876;49.394;10.892;2023-02-12T11:49:48;36.97;;;21.50;;
66093;SDS011;52876;49.394;10.892;2023-02-12T11:52:17;30.70;;;18.63;;
66093;SDS011;52876;49.394;10.892;2023-02-12T11:54:45;32.60;;;19.07;;
66093;SDS011;52876;49.394;10.892;2023-02-12T12:00:00;32.57;;;20.13;;
66093;SDS011;52876;49.394;10.892;2023-02-12T12:02:33;34.00;;;20.47;;
66093;SDS011;52876;49.394;10.892;2023-02-12T12:05:02;30.13;;;19.23;;
66093;SDS011;52876;49.394;10.892;2023-02-12T12:07:33;32.47;;;21.00;;
66093;SDS011;52876;49.394;10.892;2023-02-12T12:10:04;29.47;;;18.47;;
66093;SDS011;52876;49.394;10.892;2023-02-12T12:12:40;29.10;;;19.50;;
66093;SDS011;52876;49.394;10.892;2023-02-12T12:15:11;29.60;;;18.30;;
66093;SDS011;52876;49.394;10.892;2023-02-12T12:17:48;36.67;;;20.70;;
66093;SDS011;52876;49.394;10.892;2023-02-12T12:20:19;35.70;;;20.37;;
66093;SDS011;52876;49.394;10.892;2023-02-12T12:22:49;33.30;;;18.50;;
66093;SDS011;52876;49.394;10.892;2023-02-12T12:25:21;29.83;;;19.00;;
66093;SDS011;52876;49.394;10.892;2023-02-12T12:27:53;42.10;;;28.57;;
66093;SDS011;52876;49.394;10.892;2023-02-12T12:30:27;59.13;;;39.97;;
66093;SDS011;52876;49.394;10.892;2023-02-12T12:33:05;27.13;;;17.17;;
66093;SDS011;52876;49.394;10.892;2023-02-12T12:35:42;32.50;;;19.70;;
66093;SDS011;52876;49.394;10.892;2023-02-12T12:38:17;24.47;;;15.60;;
66093;SDS011;52876;49.394;10.892;2023-02-12T12:40:58;29.33;;;18.80;;
66093;SDS011;52876;49.394;10.892;2023-02-12T12:43:31;26.10;;;17.20;;
66093;SDS011;52876;49.394;10.892;2023-02-12T12:46:19;27.30;;;17.10;;
66093;SDS011;52876;49.394;10.892;2023-02-12T12:51:59;26.77;;;16.53;;
66093;SDS011;52876;49.394;10.892;2023-02-12T12:54:40;28.07;;;17.40;;
66093;SDS011;52876;49.394;10.892;2023-02-12T12:57:17;28.80;;;20.30;;
66093;SDS011;52876;49.394;10.892;2023-02-12T12:59:56;23.37;;;15.17;;
66093;SDS011;52876;49.394;10.892;2023-02-12T13:05:58;22.10;;;16.63;;
66093;SDS011;52876;49.394;10.892;2023-02-12T13:08:45;26.33;;;18.10;;
66093;SDS011;52876;49.394;10.892;2023-02-12T13:11:26;42.70;;;25.33;;
66093;SDS011;52876;49.394;10.892;2023-02-12T13:14:04;31.17;;;19.60;;
66093;SDS011;52876;49.394;10.892;2023-02-12T13:16:50;26.53;;;16.97;;
66093;SDS011;52876;49.394;10.892;2023-02-12T13:19:25;24.07;;;15.60;;
66093;SDS011;52876;49.394;10.892;2023-02-12T13:22:01;28.60;;;20.30;;
66093;SDS011;52876;49.394;10.892;2023-02-12T13:24:36;36.87;;;25.70;;
66093;SDS011;52876;49.394;10.892;2023-02-12T13:27:09;31.60;;;18.33;;
66093;SDS011;52876;49.394;10.892;2023-02-12T13:29:40;27.63;;;17.77;;
66093;SDS011;52876;49.394;10.892;2023-02-12T13:32:11;27.00;;;17.00;;
66093;SDS011;52876;49.394;10.892;2023-02-12T13:34:41;27.17;;;16.00;;
66093;SDS011;52876;49.394;10.892;2023-02-12T13:37:12;29.27;;;18.40;;
66093;SDS011;52876;49.394;10.892;2023-02-12T13:39:42;24.70;;;17.03;;
66093;SDS011;52876;49.394;10.892;2023-02-12T13:42:15;27.13;;;16.63;;
66093;SDS011;52876;49.394;10.892;2023-02-12T13:44:54;36.47;;;23.47;;
66093;SDS011;52876;49.394;10.892;2023-02-12T13:47:27;31.00;;;21.00;;
66093;SDS011;52876;49.394;10.892;2023-02-12T13:49:59;27.97;;;17.40;;
66093;SDS011;52876;49.394;10.892;2023-02-12T13:52:35;22.00;;;16.60;;
66093;SDS011;52876;49.394;10.892;2023-02-12T13:55:10;26.10;;;17.60;;
66093;SDS011;52876;49.394;10.892;2023-02-12T13:57:55;25.53;;;17.70;;
66093;SDS011;52876;49.394;10.892;2023-02-12T14:01:01;25.20;;;17.30;;
66093;SDS011;52876;49.394;10.892;2023-02-12T14:03:29;21.93;;;15.87;;
66093;SDS011;52876;49.394;10.892;2023-02-12T14:06:07;25.57;;;17.37;;
66093;SDS011;52876;49.394;10.892;2023-02-12T14:08:35;36.67;;;26.77;;
66093;SDS011;52876;49.394;10.892;2023-02-12T14:11:03;31.27;;;20.97;;
66093;SDS011;52876;49.394;10.892;2023-02-12T14:13:33;26.10;;;17.83;;
66093;SDS011;52876;49.394;10.892;2023-02-12T14:16:19;21.90;;;15.77;;
66093;SDS011;52876;49.394;10.892;2023-02-12T14:25:29;29.30;;;18.93;;
66093;SDS011;52876;49.394;10.892;2023-02-12T14:28:11;25.70;;;17.77;;
66093;SDS011;52876;49.394;10.892;2023-02-12T14:30:45;27.67;;;18.23;;
66093;SDS011;52876;49.394;10.892;2023-02-12T14:37:08;27.03;;;17.50;;
66093;SDS011;52876;49.394;10.892;2023-02-12T14:39:35;26.50;;;19.03;;
66093;SDS011;52876;49.394;10.892;2023-02-12T14:45:02;34.00;;;23.50;;
66093;SDS011;52876;49.394;10.892;2023-02-12T14:50:16;30.10;;;22.70;;
66093;SDS011;52876;49.394;10.892;2023-02-12T14:52:47;30.33;;;23.20;;
66093;SDS011;52876;49.394;10.892;2023-02-12T14:55:19;33.23;;;23.90;;
66093;SDS011;52876;49.394;10.892;2023-02-12T14:57:58;40.97;;;28.30;;
66093;SDS011;52876;49.394;10.892;2023-02-12T15:00:27;31.80;;;23.20;;
66093;SDS011;52876;49.394;10.892;2023-02-12T15:03:00;29.77;;;21.93;;
66093;SDS011;52876;49.394;10.892;2023-02-12T15:05:35;33.00;;;25.03;;
66093;SDS011;52876;49.394;10.892;2023-02-12T15:08:06;30.83;;;21.73;;
66093;SDS011;52876;49.394;10.892;2023-02-12T15:10:40;33.40;;;23.37;;
66093;SDS011;52876;49.394;10.892;2023-02-12T15:13:15;29.63;;;21.50;;